sensor_id;sensor_type;location;lat;lon;timestamp;P1;durP1;ratioP1;P2;durP2;ratioP2
79284;SDS011;68734;50.452;11.636;2023-05-27T00:02:05;21.45;;;5.68;;
79284;SDS011;68734;50.452;11.636;2023-05-27T00:04:31;22.60;;;6.57;;
79284;SDS011;68734;50.452;11.636;2023-05-27T00:06:56;15.40;;;4.93;;
79284;SDS011;68734;50.452;11.636;2023-05-27T00:09:22;26.50;;;5.90;;
79284;SDS011;68734;50.452;11.636;2023-05-27T00:11:47;16.17;;;6.80;;
79284;SDS011;68734;50.452;11.636;2023-05-27T00:14:12;18.95;;;5.07;;
79284;SDS011;68734;50.452;11.636;2023-05-27T00:16:40;23.85;;;4.55;;
79284;SDS011;68734;50.452;11.636;2023-05-27T00:19:06;19.55;;;5.13;;
79284;SDS011;68734;50.452;11.636;2023-05-27T00:21:31;16.55;;;4.57;;
79284;SDS011;68734;50.452;11.636;2023-05-27T00:23:56;23.58;;;5.45;;
79284;SDS011;68734;50.452;11.636;2023-05-27T00:26:25;17.80;;;5.72;;
79284;SDS011;68734;50.452;11.636;2023-05-27T00:28:51;17.17;;;4.53;;
79284;SDS011;68734;50.452;11.636;2023-05-27T00:31:16;20.80;;;7.70;;
79284;SDS011;68734;50.452;11.636;2023-05-27T00:33:44;21.10;;;5.90;;
79284;SDS011;68734;50.452;11.636;2023-05-27T00:36:10;15.55;;;5.05;;
79284;SDS011;68734;50.452;11.636;2023-05-27T00:38:35;25.30;;;5.50;;
79284;SDS011;68734;50.452;11.636;2023-05-27T00:41:04;20.30;;;4.93;;
79284;SDS011;68734;50.452;11.636;2023-05-27T00:43:31;21.40;;;5.43;;
79284;SDS011;68734;50.452;11.636;2023-05-27T00:45:57;26.17;;;6.95;;
79284;SDS011;68734;50.452;11.636;2023-05-27T00:48:22;25.05;;;5.57;;
79284;SDS011;68734;50.452;11.636;2023-05-27T00:50:48;25.35;;;5.82;;
79284;SDS011;68734;50.452;11.636;2023-05-27T00:53:13;18.98;;;4.45;;
79284;SDS011;68734;50.452;11.636;2023-05-27T00:55:43;21.50;;;5.47;;
79284;SDS011;68734;50.452;11.636;2023-05-27T00:58:08;26.15;;;4.90;;
79284;SDS011;68734;50.452;11.636;2023-05-27T01:00:34;18.85;;;5.50;;
79284;SDS011;68734;50.452;11.636;2023-05-27T01:03:02;27.80;;;5.20;;
79284;SDS011;68734;50.452;11.636;2023-05-27T01:05:31;33.47;;;6.70;;
79284;SDS011;68734;50.452;11.636;2023-05-27T01:08:14;22.45;;;5.50;;
79284;SDS011;68734;50.452;11.636;2023-05-27T01:10:50;23.45;;;5.88;;
79284;SDS011;68734;50.452;11.636;2023-05-27T01:16:01;21.92;;;6.47;;
79284;SDS011;68734;50.452;11.636;2023-05-27T01:18:35;25.83;;;5.22;;
79284;SDS011;68734;50.452;11.636;2023-05-27T01:21:05;15.93;;;6.05;;
79284;SDS011;68734;50.452;11.636;2023-05-27T01:23:32;20.60;;;5.30;;
79284;SDS011;68734;50.452;11.636;2023-05-27T01:25:58;17.00;;;5.40;;
79284;SDS011;68734;50.452;11.636;2023-05-27T01:28:24;23.17;;;5.75;;
79284;SDS011;68734;50.452;11.636;2023-05-27T01:30:50;19.33;;;5.38;;
79284;SDS011;68734;50.452;11.636;2023-05-27T01:33:20;28.77;;;6.43;;
79284;SDS011;68734;50.452;11.636;2023-05-27T01:35:56;16.70;;;5.55;;
79284;SDS011;68734;50.452;11.636;2023-05-27T01:38:26;16.25;;;5.65;;
79284;SDS011;68734;50.452;11.636;2023-05-27T01:40:53;30.05;;;7.72;;
79284;SDS011;68734;50.452;11.636;2023-05-27T01:43:20;20.00;;;5.90;;
79284;SDS011;68734;50.452;11.636;2023-05-27T01:45:47;27.73;;;6.25;;
79284;SDS011;68734;50.452;11.636;2023-05-27T01:48:12;24.33;;;5.75;;
79284;SDS011;68734;50.452;11.636;2023-05-27T01:50:38;27.67;;;6.63;;
79284;SDS011;68734;50.452;11.636;2023-05-27T01:53:03;24.55;;;6.03;;
79284;SDS011;68734;50.452;11.636;2023-05-27T01:55:29;21.58;;;5.95;;
79284;SDS011;68734;50.452;11.636;2023-05-27T01:57:55;31.98;;;6.40;;
79284;SDS011;68734;50.452;11.636;2023-05-27T02:00:21;17.90;;;5.93;;
79284;SDS011;68734;50.452;11.636;2023-05-27T02:02:47;25.45;;;5.55;;
79284;SDS011;68734;50.452;11.636;2023-05-27T02:05:12;29.33;;;6.13;;
79284;SDS011;68734;50.452;11.636;2023-05-27T02:07:38;13.05;;;5.88;;
79284;SDS011;68734;50.452;11.636;2023-05-27T02:10:04;18.45;;;5.95;;
79284;SDS011;68734;50.452;11.636;2023-05-27T02:12:30;24.48;;;7.07;;
79284;SDS011;68734;50.452;11.636;2023-05-27T02:14:55;20.10;;;5.70;;
79284;SDS011;68734;50.452;11.636;2023-05-27T02:17:20;28.65;;;6.38;;
79284;SDS011;68734;50.452;11.636;2023-05-27T02:19:46;25.55;;;6.05;;
79284;SDS011;68734;50.452;11.636;2023-05-27T02:22:12;18.58;;;6.32;;
79284;SDS011;68734;50.452;11.636;2023-05-27T02:24:38;25.13;;;7.32;;
79284;SDS011;68734;50.452;11.636;2023-05-27T02:27:06;24.50;;;6.60;;
79284;SDS011;68734;50.452;11.636;2023-05-27T02:29:31;22.80;;;6.97;;
79284;SDS011;68734;50.452;11.636;2023-05-27T02:31:57;28.35;;;6.35;;
79284;SDS011;68734;50.452;11.636;2023-05-27T02:34:24;33.20;;;6.25;;
79284;SDS011;68734;50.452;11.636;2023-05-27T02:36:52;28.75;;;6.15;;
79284;SDS011;68734;50.452;11.636;2023-05-27T02:39:18;19.23;;;6.38;;
79284;SDS011;68734;50.452;11.636;2023-05-27T02:41:43;27.80;;;6.95;;
79284;SDS011;68734;50.452;11.636;2023-05-27T02:44:11;31.27;;;6.38;;
79284;SDS011;68734;50.452;11.636;2023-05-27T02:46:36;25.40;;;6.85;;
79284;SDS011;68734;50.452;11.636;2023-05-27T02:49:02;23.33;;;7.10;;
79284;SDS011;68734;50.452;11.636;2023-05-27T02:51:27;22.85;;;6.95;;
79284;SDS011;68734;50.452;11.636;2023-05-27T02:53:53;27.05;;;6.68;;
79284;SDS011;68734;50.452;11.636;2023-05-27T02:56:19;16.48;;;6.90;;
79284;SDS011;68734;50.452;11.636;2023-05-27T02:58:44;18.15;;;6.38;;
79284;SDS011;68734;50.452;11.636;2023-05-27T03:01:12;21.42;;;6.78;;
79284;SDS011;68734;50.452;11.636;2023-05-27T03:03:37;22.73;;;7.05;;
79284;SDS011;68734;50.452;11.636;2023-05-27T03:06:03;28.05;;;7.38;;
79284;SDS011;68734;50.452;11.636;2023-05-27T03:08:28;33.92;;;8.80;;
79284;SDS011;68734;50.452;11.636;2023-05-27T03:10:54;23.27;;;7.72;;
79284;SDS011;68734;50.452;11.636;2023-05-27T03:13:20;18.17;;;6.35;;
79284;SDS011;68734;50.452;11.636;2023-05-27T03:15:47;21.95;;;6.80;;
79284;SDS011;68734;50.452;11.636;2023-05-27T03:18:13;35.15;;;7.55;;
79284;SDS011;68734;50.452;11.636;2023-05-27T03:20:39;24.70;;;7.93;;
79284;SDS011;68734;50.452;11.636;2023-05-27T03:23:04;33.78;;;7.80;;
79284;SDS011;68734;50.452;11.636;2023-05-27T03:25:29;34.75;;;7.70;;
79284;SDS011;68734;50.452;11.636;2023-05-27T03:27:55;30.83;;;8.18;;
79284;SDS011;68734;50.452;11.636;2023-05-27T03:30:21;29.90;;;8.20;;
79284;SDS011;68734;50.452;11.636;2023-05-27T03:32:46;21.15;;;7.03;;
79284;SDS011;68734;50.452;11.636;2023-05-27T03:35:12;28.80;;;8.30;;
79284;SDS011;68734;50.452;11.636;2023-05-27T03:37:37;22.05;;;7.30;;
79284;SDS011;68734;50.452;11.636;2023-05-27T03:40:03;25.08;;;8.00;;
79284;SDS011;68734;50.452;11.636;2023-05-27T03:42:29;31.27;;;10.18;;
79284;SDS011;68734;50.452;11.636;2023-05-27T03:44:54;28.33;;;7.90;;
79284;SDS011;68734;50.452;11.636;2023-05-27T03:47:22;29.25;;;8.48;;
79284;SDS011;68734;50.452;11.636;2023-05-27T03:49:47;40.20;;;7.68;;
79284;SDS011;68734;50.452;11.636;2023-05-27T03:52:13;25.73;;;6.88;;
79284;SDS011;68734;50.452;11.636;2023-05-27T03:54:40;24.98;;;6.28;;
79284;SDS011;68734;50.452;11.636;2023-05-27T03:57:06;16.58;;;6.85;;
79284;SDS011;68734;50.452;11.636;2023-05-27T03:59:32;20.13;;;6.53;;
79284;SDS011;68734;50.452;11.636;2023-05-27T04:01:57;39.00;;;7.15;;
79284;SDS011;68734;50.452;11.636;2023-05-27T04:04:25;24.33;;;6.07;;
79284;SDS011;68734;50.452;11.636;2023-05-27T04:06:53;23.77;;;6.05;;
79284;SDS011;68734;50.452;11.636;2023-05-27T04:09:20;27.77;;;9.63;;
79284;SDS011;68734;50.452;11.636;2023-05-27T04:11:45;23.70;;;6.85;;
79284;SDS011;68734;50.452;11.636;2023-05-27T04:14:11;23.65;;;7.57;;
79284;SDS011;68734;50.452;11.636;2023-05-27T04:16:37;27.02;;;8.02;;
79284;SDS011;68734;50.452;11.636;2023-05-27T04:19:03;20.65;;;6.28;;
79284;SDS011;68734;50.452;11.636;2023-05-27T04:21:28;37.83;;;9.00;;
79284;SDS011;68734;50.452;11.636;2023-05-27T04:23:54;22.50;;;5.55;;
79284;SDS011;68734;50.452;11.636;2023-05-27T04:26:19;21.25;;;6.88;;
79284;SDS011;68734;50.452;11.636;2023-05-27T04:28:45;18.77;;;6.88;;
79284;SDS011;68734;50.452;11.636;2023-05-27T04:31:11;26.73;;;7.07;;
79284;SDS011;68734;50.452;11.636;2023-05-27T04:33:42;21.73;;;7.45;;
79284;SDS011;68734;50.452;11.636;2023-05-27T04:36:08;17.60;;;5.78;;
79284;SDS011;68734;50.452;11.636;2023-05-27T04:38:36;18.60;;;6.20;;
79284;SDS011;68734;50.452;11.636;2023-05-27T04:41:01;20.73;;;7.22;;
79284;SDS011;68734;50.452;11.636;2023-05-27T04:43:27;30.65;;;8.05;;
79284;SDS011;68734;50.452;11.636;2023-05-27T04:45:54;24.75;;;7.85;;
79284;SDS011;68734;50.452;11.636;2023-05-27T04:48:21;20.73;;;7.80;;
79284;SDS011;68734;50.452;11.636;2023-05-27T04:50:48;20.58;;;6.25;;
79284;SDS011;68734;50.452;11.636;2023-05-27T04:53:13;31.85;;;7.35;;
79284;SDS011;68734;50.452;11.636;2023-05-27T04:55:40;28.27;;;7.28;;
79284;SDS011;68734;50.452;11.636;2023-05-27T04:58:06;25.75;;;7.25;;
79284;SDS011;68734;50.452;11.636;2023-05-27T05:00:34;25.63;;;7.22;;
79284;SDS011;68734;50.452;11.636;2023-05-27T05:03:06;28.17;;;9.15;;
79284;SDS011;68734;50.452;11.636;2023-05-27T05:05:32;26.02;;;7.55;;
79284;SDS011;68734;50.452;11.636;2023-05-27T05:07:58;24.50;;;6.88;;
79284;SDS011;68734;50.452;11.636;2023-05-27T05:10:24;28.02;;;6.53;;
79284;SDS011;68734;50.452;11.636;2023-05-27T05:12:50;26.80;;;7.53;;
79284;SDS011;68734;50.452;11.636;2023-05-27T05:15:15;26.48;;;7.00;;
79284;SDS011;68734;50.452;11.636;2023-05-27T05:17:41;28.10;;;8.50;;
79284;SDS011;68734;50.452;11.636;2023-05-27T05:20:07;28.98;;;7.03;;
79284;SDS011;68734;50.452;11.636;2023-05-27T05:22:34;20.67;;;6.50;;
79284;SDS011;68734;50.452;11.636;2023-05-27T05:24:59;20.55;;;5.55;;
79284;SDS011;68734;50.452;11.636;2023-05-27T05:27:25;21.95;;;7.10;;
79284;SDS011;68734;50.452;11.636;2023-05-27T05:29:50;26.02;;;6.50;;
79284;SDS011;68734;50.452;11.636;2023-05-27T05:32:15;18.58;;;7.43;;
79284;SDS011;68734;50.452;11.636;2023-05-27T05:34:43;28.60;;;7.63;;
79284;SDS011;68734;50.452;11.636;2023-05-27T05:37:08;19.38;;;7.60;;
79284;SDS011;68734;50.452;11.636;2023-05-27T05:39:36;18.42;;;5.47;;
79284;SDS011;68734;50.452;11.636;2023-05-27T05:42:02;28.48;;;8.65;;
79284;SDS011;68734;50.452;11.636;2023-05-27T05:44:28;28.23;;;6.22;;
79284;SDS011;68734;50.452;11.636;2023-05-27T05:46:57;21.20;;;6.13;;
79284;SDS011;68734;50.452;11.636;2023-05-27T05:49:23;29.48;;;7.32;;
79284;SDS011;68734;50.452;11.636;2023-05-27T05:51:48;20.17;;;6.95;;
79284;SDS011;68734;50.452;11.636;2023-05-27T05:54:16;22.60;;;8.77;;
79284;SDS011;68734;50.452;11.636;2023-05-27T05:56:42;27.15;;;6.45;;
79284;SDS011;68734;50.452;11.636;2023-05-27T05:59:07;17.33;;;6.43;;
79284;SDS011;68734;50.452;11.636;2023-05-27T06:01:32;24.10;;;7.07;;
79284;SDS011;68734;50.452;11.636;2023-05-27T06:03:58;27.83;;;8.05;;
79284;SDS011;68734;50.452;11.636;2023-05-27T06:06:24;20.58;;;5.38;;
79284;SDS011;68734;50.452;11.636;2023-05-27T06:08:49;20.50;;;5.78;;
79284;SDS011;68734;50.452;11.636;2023-05-27T06:11:15;22.88;;;6.63;;
79284;SDS011;68734;50.452;11.636;2023-05-27T06:13:41;35.35;;;8.00;;
79284;SDS011;68734;50.452;11.636;2023-05-27T06:16:06;22.35;;;6.30;;
79284;SDS011;68734;50.452;11.636;2023-05-27T06:18:32;22.15;;;6.22;;
79284;SDS011;68734;50.452;11.636;2023-05-27T06:20:57;27.08;;;8.52;;
79284;SDS011;68734;50.452;11.636;2023-05-27T06:23:23;34.28;;;7.10;;
79284;SDS011;68734;50.452;11.636;2023-05-27T06:25:49;19.23;;;6.63;;
79284;SDS011;68734;50.452;11.636;2023-05-27T06:28:14;24.40;;;6.85;;
79284;SDS011;68734;50.452;11.636;2023-05-27T06:30:39;22.73;;;6.55;;
79284;SDS011;68734;50.452;11.636;2023-05-27T06:33:08;19.55;;;6.35;;
79284;SDS011;68734;50.452;11.636;2023-05-27T06:35:34;20.52;;;6.97;;
79284;SDS011;68734;50.452;11.636;2023-05-27T06:37:59;22.27;;;6.55;;
79284;SDS011;68734;50.452;11.636;2023-05-27T06:40:25;19.70;;;6.60;;
79284;SDS011;68734;50.452;11.636;2023-05-27T06:42:51;32.33;;;7.45;;
79284;SDS011;68734;50.452;11.636;2023-05-27T06:45:16;22.08;;;7.53;;
79284;SDS011;68734;50.452;11.636;2023-05-27T06:47:41;20.70;;;5.90;;
79284;SDS011;68734;50.452;11.636;2023-05-27T06:50:07;25.98;;;7.05;;
79284;SDS011;68734;50.452;11.636;2023-05-27T06:52:33;28.38;;;6.50;;
79284;SDS011;68734;50.452;11.636;2023-05-27T06:55:00;28.30;;;8.20;;
79284;SDS011;68734;50.452;11.636;2023-05-27T06:57:26;28.35;;;6.57;;
79284;SDS011;68734;50.452;11.636;2023-05-27T06:59:52;18.60;;;5.60;;
79284;SDS011;68734;50.452;11.636;2023-05-27T07:02:19;28.15;;;7.45;;
79284;SDS011;68734;50.452;11.636;2023-05-27T07:04:45;21.42;;;6.85;;
79284;SDS011;68734;50.452;11.636;2023-05-27T07:07:10;27.92;;;6.60;;
79284;SDS011;68734;50.452;11.636;2023-05-27T07:09:36;18.20;;;6.18;;
79284;SDS011;68734;50.452;11.636;2023-05-27T07:12:01;24.92;;;6.00;;
79284;SDS011;68734;50.452;11.636;2023-05-27T07:14:27;25.55;;;6.45;;
79284;SDS011;68734;50.452;11.636;2023-05-27T07:16:53;30.60;;;6.32;;
79284;SDS011;68734;50.452;11.636;2023-05-27T07:19:18;24.40;;;6.78;;
79284;SDS011;68734;50.452;11.636;2023-05-27T07:21:44;28.98;;;6.70;;
79284;SDS011;68734;50.452;11.636;2023-05-27T07:24:09;16.40;;;5.28;;
79284;SDS011;68734;50.452;11.636;2023-05-27T07:26:35;25.15;;;6.22;;
79284;SDS011;68734;50.452;11.636;2023-05-27T07:29:01;29.08;;;6.72;;
79284;SDS011;68734;50.452;11.636;2023-05-27T07:31:27;24.02;;;4.88;;
79284;SDS011;68734;50.452;11.636;2023-05-27T07:33:53;17.63;;;6.00;;
79284;SDS011;68734;50.452;11.636;2023-05-27T07:36:19;24.40;;;6.22;;
79284;SDS011;68734;50.452;11.636;2023-05-27T07:38:45;18.73;;;6.03;;
79284;SDS011;68734;50.452;11.636;2023-05-27T07:41:10;17.23;;;4.68;;
79284;SDS011;68734;50.452;11.636;2023-05-27T07:43:38;23.35;;;6.93;;
79284;SDS011;68734;50.452;11.636;2023-05-27T07:46:04;20.30;;;5.57;;
79284;SDS011;68734;50.452;11.636;2023-05-27T07:48:29;19.83;;;6.60;;
79284;SDS011;68734;50.452;11.636;2023-05-27T07:50:55;30.67;;;7.13;;
79284;SDS011;68734;50.452;11.636;2023-05-27T07:53:20;23.55;;;6.18;;
79284;SDS011;68734;50.452;11.636;2023-05-27T07:55:46;26.23;;;7.85;;
79284;SDS011;68734;50.452;11.636;2023-05-27T07:58:12;18.73;;;6.30;;
79284;SDS011;68734;50.452;11.636;2023-05-27T08:00:41;24.42;;;5.90;;
79284;SDS011;68734;50.452;11.636;2023-05-27T08:03:06;25.75;;;6.85;;
79284;SDS011;68734;50.452;11.636;2023-05-27T08:05:32;21.10;;;6.70;;
79284;SDS011;68734;50.452;11.636;2023-05-27T08:07:57;28.25;;;6.43;;
79284;SDS011;68734;50.452;11.636;2023-05-27T08:10:23;29.30;;;6.10;;
79284;SDS011;68734;50.452;11.636;2023-05-27T08:12:48;26.65;;;7.38;;
79284;SDS011;68734;50.452;11.636;2023-05-27T08:15:14;35.38;;;10.30;;
79284;SDS011;68734;50.452;11.636;2023-05-27T08:17:40;28.63;;;7.15;;
79284;SDS011;68734;50.452;11.636;2023-05-27T08:20:05;31.95;;;9.35;;
79284;SDS011;68734;50.452;11.636;2023-05-27T08:22:31;28.25;;;7.38;;
79284;SDS011;68734;50.452;11.636;2023-05-27T08:24:57;27.33;;;7.93;;
79284;SDS011;68734;50.452;11.636;2023-05-27T08:27:41;29.35;;;8.52;;
79284;SDS011;68734;50.452;11.636;2023-05-27T08:30:11;16.17;;;5.63;;
79284;SDS011;68734;50.452;11.636;2023-05-27T08:32:38;19.60;;;5.57;;
79284;SDS011;68734;50.452;11.636;2023-05-27T08:35:04;26.38;;;7.28;;
79284;SDS011;68734;50.452;11.636;2023-05-27T08:37:30;17.40;;;5.20;;
79284;SDS011;68734;50.452;11.636;2023-05-27T08:39:55;17.50;;;6.15;;
79284;SDS011;68734;50.452;11.636;2023-05-27T08:42:23;16.88;;;5.43;;
79284;SDS011;68734;50.452;11.636;2023-05-27T08:44:48;21.17;;;6.03;;
79284;SDS011;68734;50.452;11.636;2023-05-27T08:47:15;17.55;;;5.50;;
79284;SDS011;68734;50.452;11.636;2023-05-27T08:49:41;21.58;;;4.82;;
79284;SDS011;68734;50.452;11.636;2023-05-27T08:52:06;17.33;;;6.25;;
79284;SDS011;68734;50.452;11.636;2023-05-27T08:54:36;20.42;;;5.38;;
79284;SDS011;68734;50.452;11.636;2023-05-27T08:57:02;25.60;;;5.60;;
79284;SDS011;68734;50.452;11.636;2023-05-27T08:59:32;20.67;;;6.25;;
79284;SDS011;68734;50.452;11.636;2023-05-27T09:01:59;23.65;;;6.30;;
79284;SDS011;68734;50.452;11.636;2023-05-27T09:04:27;25.73;;;5.30;;
79284;SDS011;68734;50.452;11.636;2023-05-27T09:06:53;19.50;;;5.60;;
79284;SDS011;68734;50.452;11.636;2023-05-27T09:09:19;31.00;;;6.32;;
79284;SDS011;68734;50.452;11.636;2023-05-27T09:11:45;19.27;;;6.25;;
79284;SDS011;68734;50.452;11.636;2023-05-27T09:14:23;20.98;;;6.10;;
79284;SDS011;68734;50.452;11.636;2023-05-27T09:16:48;23.90;;;6.03;;
79284;SDS011;68734;50.452;11.636;2023-05-27T09:19:20;14.25;;;4.25;;
79284;SDS011;68734;50.452;11.636;2023-05-27T09:21:46;19.45;;;5.30;;
79284;SDS011;68734;50.452;11.636;2023-05-27T09:24:11;18.45;;;4.75;;
79284;SDS011;68734;50.452;11.636;2023-05-27T09:26:37;20.67;;;4.53;;
79284;SDS011;68734;50.452;11.636;2023-05-27T09:29:06;18.25;;;5.70;;
79284;SDS011;68734;50.452;11.636;2023-05-27T09:31:42;23.35;;;6.30;;
79284;SDS011;68734;50.452;11.636;2023-05-27T09:34:16;13.32;;;5.55;;
79284;SDS011;68734;50.452;11.636;2023-05-27T09:36:46;12.65;;;3.60;;
79284;SDS011;68734;50.452;11.636;2023-05-27T09:39:16;19.27;;;4.63;;
79284;SDS011;68734;50.452;11.636;2023-05-27T09:41:42;15.07;;;4.82;;
79284;SDS011;68734;50.452;11.636;2023-05-27T09:44:08;22.48;;;5.50;;
79284;SDS011;68734;50.452;11.636;2023-05-27T09:46:34;47.72;;;7.25;;
79284;SDS011;68734;50.452;11.636;2023-05-27T09:49:01;16.58;;;6.35;;
79284;SDS011;68734;50.452;11.636;2023-05-27T09:51:29;18.63;;;5.07;;
79284;SDS011;68734;50.452;11.636;2023-05-27T09:53:57;22.90;;;6.38;;
79284;SDS011;68734;50.452;11.636;2023-05-27T09:56:24;14.85;;;5.18;;
79284;SDS011;68734;50.452;11.636;2023-05-27T09:58:55;17.90;;;5.18;;
79284;SDS011;68734;50.452;11.636;2023-05-27T10:01:25;13.52;;;4.20;;
79284;SDS011;68734;50.452;11.636;2023-05-27T10:03:54;26.60;;;6.47;;
79284;SDS011;68734;50.452;11.636;2023-05-27T10:06:21;16.48;;;5.38;;
79284;SDS011;68734;50.452;11.636;2023-05-27T10:08:49;17.13;;;7.25;;
79284;SDS011;68734;50.452;11.636;2023-05-27T10:11:17;25.50;;;7.25;;
79284;SDS011;68734;50.452;11.636;2023-05-27T10:13:43;21.35;;;6.15;;
79284;SDS011;68734;50.452;11.636;2023-05-27T10:16:18;24.23;;;6.00;;
79284;SDS011;68734;50.452;11.636;2023-05-27T10:18:47;22.40;;;6.55;;
79284;SDS011;68734;50.452;11.636;2023-05-27T10:21:20;13.70;;;3.75;;
79284;SDS011;68734;50.452;11.636;2023-05-27T10:29:08;18.10;;;5.40;;
79284;SDS011;68734;50.452;11.636;2023-05-27T10:31:47;16.55;;;6.80;;
79284;SDS011;68734;50.452;11.636;2023-05-27T10:34:13;17.42;;;7.07;;
79284;SDS011;68734;50.452;11.636;2023-05-27T10:36:39;26.27;;;6.00;;
79284;SDS011;68734;50.452;11.636;2023-05-27T10:39:06;17.58;;;6.35;;
79284;SDS011;68734;50.452;11.636;2023-05-27T10:41:38;18.77;;;6.80;;
79284;SDS011;68734;50.452;11.636;2023-05-27T10:44:05;18.25;;;5.95;;
79284;SDS011;68734;50.452;11.636;2023-05-27T10:49:21;18.75;;;5.80;;
79284;SDS011;68734;50.452;11.636;2023-05-27T10:51:50;25.38;;;6.57;;
79284;SDS011;68734;50.452;11.636;2023-05-27T10:54:16;24.60;;;6.07;;
79284;SDS011;68734;50.452;11.636;2023-05-27T10:56:52;24.67;;;6.03;;
79284;SDS011;68734;50.452;11.636;2023-05-27T10:59:21;21.20;;;5.20;;
79284;SDS011;68734;50.452;11.636;2023-05-27T11:01:51;32.72;;;5.55;;
79284;SDS011;68734;50.452;11.636;2023-05-27T11:04:20;25.75;;;6.47;;
79284;SDS011;68734;50.452;11.636;2023-05-27T11:06:56;15.82;;;6.57;;
79284;SDS011;68734;50.452;11.636;2023-05-27T11:09:26;18.10;;;4.97;;
79284;SDS011;68734;50.452;11.636;2023-05-27T11:11:51;23.75;;;6.53;;
79284;SDS011;68734;50.452;11.636;2023-05-27T11:14:17;19.92;;;6.53;;
79284;SDS011;68734;50.452;11.636;2023-05-27T11:16:48;16.15;;;5.40;;
79284;SDS011;68734;50.452;11.636;2023-05-27T11:19:23;14.73;;;4.95;;
79284;SDS011;68734;50.452;11.636;2023-05-27T11:21:50;23.52;;;5.38;;
79284;SDS011;68734;50.452;11.636;2023-05-27T11:24:17;21.20;;;4.82;;
79284;SDS011;68734;50.452;11.636;2023-05-27T11:26:43;19.48;;;5.65;;
79284;SDS011;68734;50.452;11.636;2023-05-27T11:29:13;16.83;;;6.35;;
79284;SDS011;68734;50.452;11.636;2023-05-27T11:31:39;14.60;;;6.45;;
79284;SDS011;68734;50.452;11.636;2023-05-27T11:34:12;21.75;;;5.95;;
79284;SDS011;68734;50.452;11.636;2023-05-27T11:36:39;15.45;;;4.97;;
79284;SDS011;68734;50.452;11.636;2023-05-27T11:39:05;22.98;;;5.30;;
79284;SDS011;68734;50.452;11.636;2023-05-27T11:41:31;16.48;;;6.35;;
79284;SDS011;68734;50.452;11.636;2023-05-27T11:43:59;14.45;;;4.90;;
79284;SDS011;68734;50.452;11.636;2023-05-27T11:46:42;15.25;;;4.88;;
79284;SDS011;68734;50.452;11.636;2023-05-27T11:49:09;16.95;;;5.28;;
79284;SDS011;68734;50.452;11.636;2023-05-27T11:51:45;16.27;;;4.95;;
79284;SDS011;68734;50.452;11.636;2023-05-27T11:56:43;13.00;;;4.45;;
79284;SDS011;68734;50.452;11.636;2023-05-27T11:59:09;14.93;;;5.20;;
79284;SDS011;68734;50.452;11.636;2023-05-27T12:01:35;14.55;;;5.97;;
79284;SDS011;68734;50.452;11.636;2023-05-27T12:04:00;13.38;;;4.78;;
79284;SDS011;68734;50.452;11.636;2023-05-27T12:06:25;20.80;;;4.20;;
79284;SDS011;68734;50.452;11.636;2023-05-27T12:08:51;18.33;;;4.97;;
79284;SDS011;68734;50.452;11.636;2023-05-27T12:11:16;14.85;;;4.15;;
79284;SDS011;68734;50.452;11.636;2023-05-27T12:13:43;24.88;;;4.28;;
79284;SDS011;68734;50.452;11.636;2023-05-27T12:16:08;14.73;;;4.85;;
79284;SDS011;68734;50.452;11.636;2023-05-27T12:18:34;15.48;;;4.18;;
79284;SDS011;68734;50.452;11.636;2023-05-27T12:21:02;17.88;;;4.03;;
79284;SDS011;68734;50.452;11.636;2023-05-27T12:23:29;27.88;;;4.72;;
79284;SDS011;68734;50.452;11.636;2023-05-27T12:25:55;15.90;;;4.20;;
79284;SDS011;68734;50.452;11.636;2023-05-27T12:28:20;12.90;;;4.32;;
79284;SDS011;68734;50.452;11.636;2023-05-27T12:30:46;14.98;;;4.18;;
79284;SDS011;68734;50.452;11.636;2023-05-27T12:33:11;15.30;;;5.53;;
79284;SDS011;68734;50.452;11.636;2023-05-27T12:35:37;14.55;;;4.28;;
79284;SDS011;68734;50.452;11.636;2023-05-27T12:38:05;16.17;;;4.20;;
79284;SDS011;68734;50.452;11.636;2023-05-27T12:40:33;14.57;;;5.22;;
79284;SDS011;68734;50.452;11.636;2023-05-27T12:42:58;13.32;;;4.80;;
79284;SDS011;68734;50.452;11.636;2023-05-27T12:45:28;15.38;;;5.05;;
79284;SDS011;68734;50.452;11.636;2023-05-27T12:47:53;12.10;;;3.78;;
79284;SDS011;68734;50.452;11.636;2023-05-27T12:50:20;13.30;;;3.45;;
79284;SDS011;68734;50.452;11.636;2023-05-27T12:52:48;16.58;;;5.40;;
79284;SDS011;68734;50.452;11.636;2023-05-27T12:55:16;12.88;;;3.15;;
79284;SDS011;68734;50.452;11.636;2023-05-27T12:57:43;12.23;;;3.55;;
79284;SDS011;68734;50.452;11.636;2023-05-27T13:00:09;11.50;;;3.38;;
79284;SDS011;68734;50.452;11.636;2023-05-27T13:02:37;8.93;;;3.50;;
79284;SDS011;68734;50.452;11.636;2023-05-27T13:05:02;8.95;;;3.20;;
79284;SDS011;68734;50.452;11.636;2023-05-27T13:07:29;9.80;;;2.75;;
79284;SDS011;68734;50.452;11.636;2023-05-27T13:09:55;9.75;;;3.55;;
79284;SDS011;68734;50.452;11.636;2023-05-27T13:12:22;13.07;;;4.05;;
79284;SDS011;68734;50.452;11.636;2023-05-27T13:14:48;5.30;;;2.17;;
79284;SDS011;68734;50.452;11.636;2023-05-27T13:17:13;13.73;;;3.78;;
79284;SDS011;68734;50.452;11.636;2023-05-27T13:19:39;11.25;;;3.95;;
79284;SDS011;68734;50.452;11.636;2023-05-27T13:22:05;8.60;;;3.20;;
79284;SDS011;68734;50.452;11.636;2023-05-27T13:24:30;11.90;;;4.45;;
79284;SDS011;68734;50.452;11.636;2023-05-27T13:26:58;8.60;;;2.65;;
79284;SDS011;68734;50.452;11.636;2023-05-27T13:29:23;9.37;;;2.43;;
79284;SDS011;68734;50.452;11.636;2023-05-27T13:31:48;12.52;;;3.33;;
79284;SDS011;68734;50.452;11.636;2023-05-27T13:34:15;8.43;;;3.80;;
79284;SDS011;68734;50.452;11.636;2023-05-27T13:36:41;12.80;;;3.53;;
79284;SDS011;68734;50.452;11.636;2023-05-27T13:39:09;8.85;;;3.50;;
79284;SDS011;68734;50.452;11.636;2023-05-27T13:41:35;14.88;;;3.70;;
79284;SDS011;68734;50.452;11.636;2023-05-27T13:44:01;13.30;;;3.88;;
79284;SDS011;68734;50.452;11.636;2023-05-27T13:46:29;12.57;;;4.05;;
79284;SDS011;68734;50.452;11.636;2023-05-27T13:48:55;9.93;;;3.40;;
79284;SDS011;68734;50.452;11.636;2023-05-27T13:51:20;11.00;;;3.58;;
79284;SDS011;68734;50.452;11.636;2023-05-27T13:53:46;12.05;;;2.70;;
79284;SDS011;68734;50.452;11.636;2023-05-27T13:56:12;11.75;;;4.75;;
79284;SDS011;68734;50.452;11.636;2023-05-27T13:58:40;8.88;;;3.35;;
79284;SDS011;68734;50.452;11.636;2023-05-27T14:01:05;7.30;;;2.60;;
79284;SDS011;68734;50.452;11.636;2023-05-27T14:03:30;13.52;;;4.25;;
79284;SDS011;68734;50.452;11.636;2023-05-27T14:05:56;10.45;;;2.88;;
79284;SDS011;68734;50.452;11.636;2023-05-27T14:08:21;8.90;;;3.83;;
79284;SDS011;68734;50.452;11.636;2023-05-27T14:10:47;13.98;;;3.22;;
79284;SDS011;68734;50.452;11.636;2023-05-27T14:13:13;17.20;;;3.90;;
79284;SDS011;68734;50.452;11.636;2023-05-27T14:15:38;7.70;;;3.03;;
79284;SDS011;68734;50.452;11.636;2023-05-27T14:18:04;8.35;;;3.97;;
79284;SDS011;68734;50.452;11.636;2023-05-27T14:20:30;11.52;;;3.70;;
79284;SDS011;68734;50.452;11.636;2023-05-27T14:22:56;7.78;;;3.10;;
79284;SDS011;68734;50.452;11.636;2023-05-27T14:25:24;11.45;;;3.13;;
79284;SDS011;68734;50.452;11.636;2023-05-27T14:27:49;11.82;;;3.42;;
79284;SDS011;68734;50.452;11.636;2023-05-27T14:30:15;13.80;;;4.25;;
79284;SDS011;68734;50.452;11.636;2023-05-27T14:32:41;9.35;;;3.03;;